Time;durP1;ratioP1;P1;durP2;ratioP2;P2;SDS_P1;SDS_P2;PMS_P1;PMS_P2;Temp;Humidity;BMP_temperature;BMP_pressure;BME280_temperature;BME280_humidity;BME280_pressure;Samples;Min_cycle;Max_cycle;Signal;HPM_P1;HPM_P2
2021/12/02 00:01:28;;;;;;;12.30;9.65;;;;;;;7.17;62.66;92981.17;1724687;81;21174;-55
2021/12/02 00:03:55;;;;;;;13.58;9.05;;;;;;;7.18;62.60;92976.58;1735817;82;21860;-56
2021/12/02 00:06:23;;;;;;;22.80;14.07;;;;;;;7.15;62.66;92958.38;1723904;82;20906;-54
2021/12/02 00:08:51;;;;;;;10.85;7.85;;;;;;;7.12;62.84;92950.38;1688893;83;21006;-54
2021/12/02 00:11:18;;;;;;;18.35;12.47;;;;;;;7.13;62.87;92952.63;1654263;84;21251;-55
2021/12/02 00:16:29;;;;;;;11.00;8.98;;;;;;;7.19;62.74;92955.48;1675753;84;21850;-54
2021/12/02 00:21:26;;;;;;;6.40;5.75;;;;;;;7.17;62.65;92951.83;1722062;82;20934;-55
2021/12/02 00:24:03;;;;;;;7.87;5.33;;;;;;;7.19;62.58;92944.54;1736833;82;21063;-56
2021/12/02 00:26:35;;;;;;;7.47;5.75;;;;;;;7.17;62.53;92946.99;1727982;82;21552;-55
2021/12/02 00:29:05;;;;;;;6.70;5.67;;;;;;;7.17;62.55;92956.56;1730934;81;21521;-56
2021/12/02 00:31:35;;;;;;;8.00;5.35;;;;;;;7.17;62.48;92939.53;1735789;81;21017;-55
2021/12/02 00:34:05;;;;;;;5.87;5.28;;;;;;;7.19;62.36;92943.17;1709990;83;20994;-56
2021/12/02 00:36:36;;;;;;;5.67;5.00;;;;;;;7.22;62.22;92948.47;1710854;83;21481;-55
2021/12/02 00:39:15;;;;;;;7.78;6.10;;;;;;;7.27;62.04;92953.88;1710871;83;20946;-56
2021/12/02 00:41:42;;;;;;;5.55;4.70;;;;;;;7.29;61.78;92957.66;1708827;83;21521;-55
2021/12/02 00:44:09;;;;;;;4.70;4.20;;;;;;;7.37;61.62;92938.28;1710484;83;20998;-55
2021/12/02 00:46:36;;;;;;;4.65;4.25;;;;;;;7.43;61.30;92928.81;1708811;83;20962;-54
2021/12/02 00:49:11;;;;;;;4.62;4.33;;;;;;;7.47;61.25;92921.17;1713601;83;20958;-54
2021/12/02 00:51:39;;;;;;;5.75;5.25;;;;;;;7.50;60.96;92918.88;1712463;83;21577;-55
2021/12/02 00:54:10;;;;;;;7.35;5.62;;;;;;;7.54;61.17;92931.76;1708131;82;21144;-57
2021/12/02 00:56:39;;;;;;;21.80;4.87;;;;;;;7.55;61.31;92923.06;1708375;83;21080;-55
2021/12/02 00:59:06;;;;;;;8.18;3.52;;;;;;;7.53;61.73;92917.30;1709405;83;21480;-56
2021/12/02 01:01:35;;;;;;;4.28;3.90;;;;;;;7.57;61.67;92912.42;1708940;83;21462;-57
2021/12/02 01:04:11;;;;;;;4.25;3.45;;;;;;;7.63;61.53;92920.11;1710385;83;21065;-55
2021/12/02 01:06:39;;;;;;;4.33;3.58;;;;;;;7.65;61.45;92909.44;1712174;83;21162;-54
2021/12/02 01:09:08;;;;;;;3.95;3.65;;;;;;;7.68;61.24;92896.17;1709652;83;20946;-55
2021/12/02 01:11:36;;;;;;;4.05;3.70;;;;;;;7.72;60.86;92887.16;1712890;83;21130;-55
2021/12/02 01:14:03;;;;;;;5.67;4.05;;;;;;;7.78;61.15;92881.17;1713993;83;20967;-55
2021/12/02 01:16:30;;;;;;;3.75;3.35;;;;;;;7.80;60.15;92889.66;1711235;83;21108;-54
2021/12/02 01:18:57;;;;;;;3.35;3.15;;;;;;;7.84;60.42;92866.95;1712298;83;21763;-55
2021/12/02 01:21:25;;;;;;;4.55;3.80;;;;;;;7.85;60.98;92846.56;1709652;83;21014;-54
2021/12/02 01:23:56;;;;;;;5.70;3.70;;;;;;;7.83;61.39;92914.71;1710647;83;21109;-54
2021/12/02 01:26:23;;;;;;;4.17;3.72;;;;;;;7.77;61.46;92850.93;1709855;83;20966;-55
2021/12/02 01:28:50;;;;;;;4.72;3.85;;;;;;;7.75;60.56;92885.46;1709975;83;20962;-55
2021/12/02 01:31:17;;;;;;;4.20;3.90;;;;;;;7.76;60.66;92863.11;1709018;82;21186;-54
2021/12/02 01:33:45;;;;;;;4.03;3.62;;;;;;;7.76;61.07;92889.11;1709697;83;20958;-54
2021/12/02 01:36:13;;;;;;;4.53;3.65;;;;;;;7.73;61.07;92869.50;1707354;83;21010;-55
2021/12/02 01:38:39;;;;;;;4.10;3.80;;;;;;;7.71;61.43;92863.02;1708912;83;21049;-55
2021/12/02 01:41:06;;;;;;;3.65;3.45;;;;;;;7.68;60.89;92872.91;1708982;83;21434;-55
2021/12/02 01:43:49;;;;;;;5.55;3.72;;;;;;;7.69;60.91;92862.73;1710858;83;21164;-57
2021/12/02 01:46:19;;;;;;;3.90;3.60;;;;;;;7.66;60.81;92860.32;1712187;83;20993;-54
2021/12/02 01:49:01;;;;;;;3.98;3.65;;;;;;;7.68;61.19;92863.34;1689368;83;20966;-56
2021/12/02 01:51:21;;;;;;;4.97;3.83;;;;;;;7.69;60.87;92860.73;1709436;83;20982;-55
2021/12/02 01:53:50;;;;;;;3.75;3.45;;;;;;;7.72;60.84;92874.84;1688103;83;21053;-54
2021/12/02 01:56:18;;;;;;;3.87;3.58;;;;;;;7.72;60.69;92868.00;1713716;83;21132;-55
2021/12/02 01:58:50;;;;;;;4.05;3.75;;;;;;;7.77;60.62;92859.73;1710564;83;21058;-55
2021/12/02 02:01:23;;;;;;;4.30;3.52;;;;;;;7.75;60.67;92861.59;1710749;83;21061;-55
2021/12/02 02:03:52;;;;;;;3.72;3.40;;;;;;;7.75;60.62;92838.34;1712451;83;21038;-55
2021/12/02 02:06:43;;;;;;;3.98;3.55;;;;;;;7.76;60.63;92837.11;1710560;83;21050;-54
2021/12/02 02:09:11;;;;;;;4.22;3.80;;;;;;;7.75;60.64;92832.09;1709216;83;21781;-55
2021/12/02 02:11:37;;;;;;;4.28;3.60;;;;;;;7.75;60.78;92834.23;1710420;83;20954;-55
2021/12/02 02:14:07;;;;;;;4.03;3.65;;;;;;;7.74;60.19;92846.38;1708435;83;20962;-55
2021/12/02 02:16:33;;;;;;;4.40;4.00;;;;;;;7.80;60.24;92823.97;1709627;83;21002;-56
2021/12/02 02:19:00;;;;;;;4.62;4.22;;;;;;;7.84;60.29;92828.63;1709491;83;20949;-55
2021/12/02 02:21:26;;;;;;;7.17;4.22;;;;;;;7.85;60.40;92834.24;1709258;83;21126;-56
2021/12/02 02:23:57;;;;;;;4.75;4.28;;;;;;;7.84;60.47;92831.37;1708328;83;21010;-55
2021/12/02 02:26:29;;;;;;;5.97;4.60;;;;;;;7.83;60.63;92821.65;1711142;83;21490;-55
2021/12/02 02:28:55;;;;;;;5.62;4.97;;;;;;;7.80;60.58;92821.84;1710774;83;21025;-55
2021/12/02 02:31:23;;;;;;;6.65;4.53;;;;;;;7.80;60.75;92825.34;1708449;83;21544;-55
2021/12/02 02:33:53;;;;;;;4.42;4.03;;;;;;;7.78;60.73;92803.17;1710282;83;21228;-55
2021/12/02 02:36:21;;;;;;;6.22;4.87;;;;;;;7.77;61.04;92807.14;1711366;82;21508;-56
2021/12/02 02:38:55;;;;;;;4.30;3.90;;;;;;;7.74;61.37;92806.70;1711987;83;21014;-56
2021/12/02 02:41:25;;;;;;;3.95;3.65;;;;;;;7.70;61.42;92799.30;1710675;83;21505;-56
2021/12/02 02:43:56;;;;;;;5.22;4.70;;;;;;;7.68;61.41;92794.92;1708037;82;21085;-56
2021/12/02 02:46:28;;;;;;;4.25;3.83;;;;;;;7.68;61.73;92796.92;1710515;83;21164;-56
2021/12/02 02:48:55;;;;;;;6.28;3.98;;;;;;;7.64;62.03;92805.32;1712013;83;21062;-56
2021/12/02 02:51:22;;;;;;;3.77;3.47;;;;;;;7.61;62.40;92810.98;1708934;83;20998;-54
2021/12/02 02:53:52;;;;;;;4.30;3.90;;;;;;;7.57;62.61;92809.06;1708801;83;21064;-55
2021/12/02 02:56:26;;;;;;;4.08;3.67;;;;;;;7.53;62.94;92816.08;1713397;83;21020;-55
2021/12/02 02:59:00;;;;;;;5.47;4.92;;;;;;;7.50;62.91;92818.41;1688477;83;21137;-54
2021/12/02 03:01:36;;;;;;;4.60;4.00;;;;;;;7.47;62.92;92804.31;1712023;83;20986;-56
2021/12/02 03:06:49;;;;;;;4.72;3.60;;;;;;;7.44;62.48;92805.27;1709152;83;21191;-55
2021/12/02 03:09:25;;;;;;;3.62;3.30;;;;;;;7.45;61.97;92819.08;1709192;83;21088;-56
2021/12/02 03:11:50;;;;;;;3.95;3.65;;;;;;;7.51;61.03;92844.53;1712670;82;21177;-56
2021/12/02 03:14:21;;;;;;;4.30;3.72;;;;;;;7.60;61.09;92827.26;1710149;83;20974;-56
2021/12/02 03:16:45;;;;;;;3.27;3.08;;;;;;;7.61;61.40;92812.34;1709421;83;20982;-55
2021/12/02 03:19:24;;;;;;;3.55;3.30;;;;;;;7.59;61.61;92810.70;1710436;83;20974;-55
2021/12/02 03:21:51;;;;;;;3.70;3.40;;;;;;;7.56;61.73;92809.66;1710450;83;21508;-56
2021/12/02 03:24:18;;;;;;;6.00;4.87;;;;;;;7.57;61.80;92824.88;1712623;83;21146;-55
2021/12/02 03:26:44;;;;;;;6.37;5.78;;;;;;;7.56;61.81;92812.39;1688981;83;21490;-56
2021/12/02 03:29:11;;;;;;;5.15;3.80;;;;;;;7.54;62.11;92816.22;1712913;83;20986;-55
2021/12/02 03:31:38;;;;;;;4.72;4.33;;;;;;;7.50;62.19;92814.30;1711722;83;21104;-55
2021/12/02 03:34:07;;;;;;;4.00;3.60;;;;;;;7.49;62.03;92823.73;1713029;83;21418;-56
2021/12/02 03:36:35;;;;;;;6.08;5.50;;;;;;;7.48;61.04;92808.55;1711433;83;21183;-53
2021/12/02 03:39:05;;;;;;;8.25;6.65;;;;;;;7.56;61.20;92808.92;1709893;83;21557;-56
2021/12/02 03:41:33;;;;;;;8.43;6.33;;;;;;;7.57;61.28;92801.62;1707718;83;21061;-55
2021/12/02 03:44:00;;;;;;;6.72;6.03;;;;;;;7.55;61.51;92804.05;1709398;83;21001;-55
2021/12/02 03:46:27;;;;;;;5.30;4.80;;;;;;;7.53;61.85;92803.03;1711504;83;21203;-54
2021/12/02 03:48:54;;;;;;;5.42;4.90;;;;;;;7.48;61.89;92818.12;1709331;83;21981;-55
2021/12/02 03:51:22;;;;;;;7.33;5.53;;;;;;;7.46;61.91;92807.51;1708987;83;20998;-55
2021/12/02 03:53:50;;;;;;;4.50;4.10;;;;;;;7.46;62.28;92815.11;1707854;83;21169;-55
2021/12/02 03:56:17;;;;;;;13.80;10.95;;;;;;;7.44;62.38;92823.04;1712086;83;20990;-54
2021/12/02 03:58:45;;;;;;;4.20;3.90;;;;;;;7.41;62.29;92802.11;1712450;83;21117;-55
2021/12/02 04:01:13;;;;;;;9.33;8.60;;;;;;;7.43;62.02;92824.27;1709236;83;21932;-56
2021/12/02 04:03:40;;;;;;;4.37;3.98;;;;;;;7.46;62.15;92819.81;1710516;83;21057;-56
2021/12/02 04:06:07;;;;;;;3.67;3.37;;;;;;;7.46;62.23;92807.51;1711816;83;21429;-56
2021/12/02 04:08:43;;;;;;;4.75;4.45;;;;;;;7.45;62.03;92822.41;1710576;83;20971;-56
2021/12/02 04:11:18;;;;;;;5.50;5.00;;;;;;;7.51;62.42;92814.44;1709216;83;20950;-56
2021/12/02 04:13:54;;;;;;;6.00;5.40;;;;;;;7.51;62.52;92808.97;1708274;83;21774;-56
2021/12/02 04:16:17;;;;;;;4.92;4.33;;;;;;;7.51;62.64;92826.75;1705876;83;20979;-57
2021/12/02 04:18:42;;;;;;;4.85;4.45;;;;;;;7.49;62.42;92825.11;1689017;83;21667;-57
2021/12/02 04:21:09;;;;;;;8.78;7.12;;;;;;;7.51;62.25;92823.27;1687606;83;21564;-56
2021/12/02 04:23:35;;;;;;;4.40;3.85;;;;;;;7.55;62.40;92828.67;1708061;83;20953;-55
2021/12/02 04:26:02;;;;;;;5.17;4.10;;;;;;;7.56;62.23;92828.81;1712057;83;21161;-56
2021/12/02 04:28:30;;;;;;;3.58;3.22;;;;;;;7.58;62.28;92827.75;1710765;83;21076;-56
2021/12/02 04:30:57;;;;;;;6.03;4.25;;;;;;;7.57;62.15;92816.67;1708949;83;21066;-55
2021/12/02 04:33:23;;;;;;;4.30;4.00;;;;;;;7.58;62.41;92822.27;1712136;83;21454;-55
2021/12/02 04:35:52;;;;;;;5.95;5.05;;;;;;;7.57;62.60;92836.42;1710366;83;21002;-55
2021/12/02 04:38:20;;;;;;;3.85;3.33;;;;;;;7.55;62.53;92824.57;1710918;82;21852;-56
2021/12/02 04:40:46;;;;;;;4.37;4.03;;;;;;;7.56;62.78;92846.59;1710134;83;21006;-55
2021/12/02 04:43:13;;;;;;;3.70;3.50;;;;;;;7.57;62.97;92848.12;1711410;83;21084;-55
2021/12/02 04:45:40;;;;;;;3.25;3.00;;;;;;;7.57;63.00;92838.55;1711624;83;21093;-55
2021/12/02 04:48:06;;;;;;;5.05;4.60;;;;;;;7.55;63.11;92832.03;1712513;83;20953;-54
2021/12/02 04:50:34;;;;;;;5.97;5.47;;;;;;;7.54;63.55;92834.00;1711335;83;21214;-56
2021/12/02 04:53:01;;;;;;;4.20;3.55;;;;;;;7.53;63.82;92842.70;1688171;83;21122;-54
2021/12/02 04:55:28;;;;;;;3.20;3.00;;;;;;;7.53;64.42;92839.97;1687517;83;21699;-55
2021/12/02 04:57:54;;;;;;;3.33;3.12;;;;;;;7.51;64.68;92846.53;1710444;83;21006;-56
2021/12/02 05:00:23;;;;;;;3.22;3.02;;;;;;;7.48;64.34;92849.59;1713089;83;21469;-55
2021/12/02 05:02:49;;;;;;;3.90;3.30;;;;;;;7.47;64.87;92854.91;1710713;83;21513;-55
2021/12/02 05:05:16;;;;;;;4.03;3.72;;;;;;;7.48;64.54;92848.22;1710568;83;21470;-55
2021/12/02 05:07:42;;;;;;;5.12;4.72;;;;;;;7.48;65.00;92850.22;1689663;83;21147;-55
2021/12/02 05:10:09;;;;;;;3.87;3.58;;;;;;;7.50;65.29;92850.49;1709301;83;21101;-54
2021/12/02 05:12:37;;;;;;;4.45;4.15;;;;;;;7.52;65.26;92843.93;1707064;83;20966;-56
2021/12/02 05:15:05;;;;;;;5.08;4.58;;;;;;;7.48;65.63;92844.11;1689281;83;21144;-55
2021/12/02 05:17:31;;;;;;;4.03;3.72;;;;;;;7.43;65.69;92846.16;1711134;83;21514;-56
2021/12/02 05:19:58;;;;;;;4.12;3.72;;;;;;;7.41;65.87;92845.11;1711152;83;21058;-57
2021/12/02 05:22:25;;;;;;;4.45;4.05;;;;;;;7.39;65.98;92843.46;1708180;83;20959;-55
2021/12/02 05:24:52;;;;;;;4.28;3.98;;;;;;;7.34;65.89;92844.87;1708405;83;21544;-57
2021/12/02 05:27:19;;;;;;;8.68;3.90;;;;;;;7.35;65.97;92839.54;1706318;83;21947;-56
2021/12/02 05:29:46;;;;;;;5.15;4.15;;;;;;;7.36;65.84;92838.31;1712357;83;20942;-55
2021/12/02 05:32:12;;;;;;;5.08;4.15;;;;;;;7.38;65.99;92846.06;1713830;83;21064;-57
2021/12/02 05:34:39;;;;;;;4.40;4.00;;;;;;;7.37;66.17;92845.29;1688107;83;21093;-57
2021/12/02 05:37:06;;;;;;;5.03;4.58;;;;;;;7.38;66.29;92863.20;1689745;83;20986;-56
2021/12/02 05:39:34;;;;;;;5.85;4.72;;;;;;;7.44;66.40;92879.72;1712380;83;21149;-57
2021/12/02 05:42:00;;;;;;;7.10;4.80;;;;;;;7.45;66.52;92881.99;1713168;83;21477;-56
2021/12/02 05:44:27;;;;;;;9.55;5.20;;;;;;;7.47;66.72;92876.03;1689440;83;21023;-56
2021/12/02 05:46:54;;;;;;;6.17;5.30;;;;;;;7.42;66.90;92871.23;1688907;83;20958;-57
2021/12/02 05:49:21;;;;;;;7.25;4.83;;;;;;;7.39;67.21;92874.31;1712051;83;21173;-56
2021/12/02 05:51:48;;;;;;;5.47;4.97;;;;;;;7.36;67.46;92869.77;1688552;83;21211;-55
2021/12/02 05:54:14;;;;;;;6.80;5.35;;;;;;;7.32;67.84;92868.47;1710244;83;20966;-56
2021/12/02 05:56:41;;;;;;;5.53;5.03;;;;;;;7.31;67.98;92875.91;1710917;83;21077;-56
2021/12/02 05:59:08;;;;;;;6.28;5.20;;;;;;;7.26;68.21;92869.73;1712246;83;21025;-55
2021/12/02 06:01:37;;;;;;;5.67;4.90;;;;;;;7.22;68.61;92876.00;1712827;83;20994;-56
2021/12/02 06:04:04;;;;;;;8.00;5.55;;;;;;;7.19;68.76;92884.39;1710367;83;21803;-57
2021/12/02 06:06:30;;;;;;;9.15;5.47;;;;;;;7.20;68.82;92895.46;1710565;83;21014;-55
2021/12/02 06:08:57;;;;;;;10.20;6.90;;;;;;;7.20;68.91;92890.00;1711239;83;21431;-59
2021/12/02 06:11:23;;;;;;;19.02;10.40;;;;;;;7.24;69.02;92889.96;1712526;83;21420;-56
2021/12/02 06:13:51;;;;;;;11.40;8.88;;;;;;;7.29;69.04;92887.92;1709603;83;21086;-57
2021/12/02 06:16:17;;;;;;;18.17;11.43;;;;;;;7.32;69.20;92881.52;1686080;83;21137;-57
2021/12/02 06:18:43;;;;;;;17.00;9.80;;;;;;;7.31;69.35;92882.00;1686589;83;20974;-56
2021/12/02 06:21:10;;;;;;;17.73;9.68;;;;;;;7.35;69.38;92882.56;1708351;83;21041;-55
2021/12/02 06:23:39;;;;;;;19.65;11.57;;;;;;;7.38;69.25;92890.55;1689324;83;21597;-61
2021/12/02 06:26:05;;;;;;;18.92;11.75;;;;;;;7.41;69.57;92891.61;1708756;82;20954;-57
2021/12/02 06:28:31;;;;;;;16.80;11.25;;;;;;;7.42;69.59;92904.05;1710710;83;21450;-57
2021/12/02 06:31:01;;;;;;;9.70;7.20;;;;;;;7.52;69.63;92909.59;1711880;83;21042;-56
2021/12/02 06:33:27;;;;;;;12.65;9.15;;;;;;;7.58;69.21;92909.06;1687026;83;21037;-57
2021/12/02 06:35:54;;;;;;;14.70;9.95;;;;;;;7.57;69.37;92911.06;1701744;83;21475;-56
2021/12/02 06:38:21;;;;;;;17.65;13.15;;;;;;;7.61;69.76;92905.37;1685373;83;21674;-56
2021/12/02 06:40:47;;;;;;;35.98;24.47;;;;;;;7.67;69.87;92900.77;1693726;83;21951;-55
2021/12/02 06:43:15;;;;;;;27.05;18.30;;;;;;;7.71;70.05;92902.69;1705297;83;21088;-54
2021/12/02 06:45:43;;;;;;;24.63;18.05;;;;;;;7.76;69.86;92885.00;1693584;83;21035;-56
2021/12/02 06:48:10;;;;;;;25.90;18.65;;;;;;;7.79;69.60;92887.38;1688913;83;21057;-55
2021/12/02 06:50:37;;;;;;;26.60;19.27;;;;;;;7.79;69.55;92890.13;1686108;82;21146;-55
2021/12/02 06:53:05;;;;;;;21.35;15.18;;;;;;;7.76;69.51;92891.84;1712162;82;21521;-58
2021/12/02 06:55:32;;;;;;;19.73;13.83;;;;;;;7.68;69.90;92881.75;1701394;82;20991;-59
2021/12/02 06:57:58;;;;;;;18.15;12.78;;;;;;;7.65;70.03;92901.23;1701780;83;21447;-59
2021/12/02 07:00:25;;;;;;;19.40;12.25;;;;;;;7.61;69.95;92891.69;1709312;83;21047;-57
2021/12/02 07:02:52;;;;;;;15.80;11.65;;;;;;;7.55;70.21;92901.17;1707293;82;20962;-56
2021/12/02 07:05:19;;;;;;;17.35;12.98;;;;;;;7.49;70.34;92894.86;1644539;84;21119;-57
2021/12/02 07:07:46;;;;;;;15.43;11.08;;;;;;;7.41;70.78;92892.97;1644269;85;20999;-58
2021/12/02 07:10:21;;;;;;;15.30;10.28;;;;;;;7.39;71.06;92915.34;1693689;83;20982;-59
2021/12/02 07:12:50;;;;;;;16.57;12.05;;;;;;;7.40;71.21;92912.75;1643134;85;21149;-57
2021/12/02 07:15:18;;;;;;;16.27;13.32;;;;;;;7.40;71.44;92911.98;1701994;82;22069;-59
2021/12/02 07:17:47;;;;;;;9.58;7.28;;;;;;;7.35;71.42;92924.95;1678118;83;21116;-59
2021/12/02 07:20:14;;;;;;;11.50;7.85;;;;;;;7.31;71.50;92920.28;1690002;82;21090;-59
2021/12/02 07:22:41;;;;;;;20.35;13.03;;;;;;;7.30;71.76;92913.31;1693465;82;21052;-57
2021/12/02 07:25:09;;;;;;;15.15;9.50;;;;;;;7.33;71.81;92914.47;1701021;82;21159;-57
2021/12/02 07:27:37;;;;;;;15.85;9.70;;;;;;;7.36;71.89;92924.47;1670460;83;21090;-58
2021/12/02 07:30:07;;;;;;;31.15;19.57;;;;;;;7.34;71.74;92920.08;1699699;82;21263;-55
2021/12/02 07:32:40;;;;;;;15.78;12.05;;;;;;;7.30;71.42;92926.35;1705586;82;21022;-57
2021/12/02 07:35:12;;;;;;;14.78;8.83;;;;;;;7.30;71.29;92916.78;1669384;83;21039;-53
2021/12/02 07:37:48;;;;;;;15.90;9.08;;;;;;;7.30;71.32;92924.98;1695802;82;21073;-57
2021/12/02 07:40:18;;;;;;;19.70;11.45;;;;;;;7.36;71.16;92923.09;1701018;82;21506;-57
2021/12/02 07:42:46;;;;;;;26.10;19.20;;;;;;;7.44;71.05;92928.35;1695036;82;21062;-59
2021/12/02 07:45:14;;;;;;;24.10;16.48;;;;;;;7.49;70.85;92930.42;1674283;82;20986;-56
2021/12/02 07:47:41;;;;;;;24.65;15.50;;;;;;;7.46;70.94;92945.05;1696109;82;21393;-56
2021/12/02 07:50:11;;;;;;;22.15;16.57;;;;;;;7.47;70.94;92936.22;1696251;82;21144;-59
2021/12/02 07:52:46;;;;;;;16.95;13.05;;;;;;;7.49;71.11;92938.62;1693032;82;21611;-59
2021/12/02 07:55:15;;;;;;;21.20;13.75;;;;;;;7.54;71.21;92938.59;1641665;84;21312;-61
2021/12/02 07:57:44;;;;;;;23.38;17.02;;;;;;;7.59;71.35;92941.44;1639248;84;21181;-58
2021/12/02 08:00:13;;;;;;;25.10;16.75;;;;;;;7.68;71.37;92937.84;1633409;85;21102;-61
2021/12/02 08:14:41;;;;;;;19.05;13.32;;;;;;;8.16;70.71;92926.78;1703778;82;21159;-58
2021/12/02 08:17:10;;;;;;;24.90;15.63;;;;;;;8.25;70.49;92953.48;1702561;82;21029;-59
2021/12/02 08:19:37;;;;;;;14.68;11.63;;;;;;;8.29;70.53;92932.11;1667949;83;21871;-58
2021/12/02 08:22:04;;;;;;;15.63;11.95;;;;;;;8.26;70.12;92941.28;1707316;82;21066;-55
2021/12/02 08:24:31;;;;;;;18.32;12.80;;;;;;;8.28;70.17;92944.30;1674996;83;21028;-57
2021/12/02 08:26:58;;;;;;;21.50;13.38;;;;;;;8.39;70.42;92928.04;1696247;82;21078;-57
2021/12/02 08:29:25;;;;;;;19.42;13.50;;;;;;;8.53;70.35;92936.07;1689307;82;21066;-59
2021/12/02 08:31:52;;;;;;;11.97;9.40;;;;;;;8.63;69.71;92940.20;1697639;82;21190;-58
2021/12/02 08:34:19;;;;;;;12.23;9.30;;;;;;;8.70;68.85;92939.19;1704187;82;21102;-59
2021/12/02 08:36:49;;;;;;;10.35;7.62;;;;;;;8.79;68.43;92942.42;1652836;83;21050;-58
2021/12/02 08:39:23;;;;;;;8.35;6.17;;;;;;;8.83;67.18;92940.22;1694378;82;21430;-57
2021/12/02 08:41:49;;;;;;;6.40;5.80;;;;;;;8.88;66.51;92935.42;1691879;82;21449;-62
2021/12/02 08:44:21;;;;;;;7.72;6.62;;;;;;;8.90;65.74;92928.23;1698319;82;21500;-59
2021/12/02 08:46:51;;;;;;;8.05;6.97;;;;;;;8.96;65.98;92934.53;1700106;81;22224;-63
2021/12/02 08:49:20;;;;;;;6.00;5.40;;;;;;;9.03;66.04;92940.36;1691313;82;21022;-61
2021/12/02 08:51:47;;;;;;;5.45;5.00;;;;;;;9.05;65.25;92938.52;1700032;82;21050;-57
2021/12/02 08:54:15;;;;;;;5.78;5.15;;;;;;;9.06;65.50;92937.28;1698310;81;20958;-59
2021/12/02 08:56:44;;;;;;;7.65;6.40;;;;;;;9.14;65.60;92932.27;1664754;82;21063;-60
2021/12/02 08:59:11;;;;;;;6.45;5.83;;;;;;;9.19;65.68;92930.20;1674966;82;22104;-59
2021/12/02 09:01:38;;;;;;;7.55;6.37;;;;;;;9.24;65.19;92931.51;1699660;82;21446;-59
2021/12/02 09:04:05;;;;;;;7.10;6.40;;;;;;;9.29;64.59;92937.03;1693025;82;21010;-59
2021/12/02 09:06:32;;;;;;;8.48;5.97;;;;;;;9.37;64.85;92926.39;1668395;83;21153;-61
2021/12/02 09:08:59;;;;;;;22.25;15.30;;;;;;;9.48;63.86;92921.03;1700388;82;21125;-57
2021/12/02 09:11:30;;;;;;;14.03;9.95;;;;;;;9.60;64.33;92917.16;1692717;82;21065;-59
2021/12/02 09:13:58;;;;;;;8.93;7.80;;;;;;;9.73;64.74;92918.89;1694849;82;21021;-61
2021/12/02 09:16:28;;;;;;;8.65;6.78;;;;;;;9.87;64.68;92913.91;1664361;83;21053;-58
2021/12/02 09:18:58;;;;;;;8.73;6.05;;;;;;;9.89;64.31;92915.54;1669937;83;21021;-59
2021/12/02 09:21:25;;;;;;;11.00;7.92;;;;;;;9.90;64.39;92906.83;1692423;82;21553;-61
2021/12/02 09:23:52;;;;;;;12.18;7.78;;;;;;;9.93;63.60;92907.83;1683505;82;21124;-60
2021/12/02 09:26:20;;;;;;;10.80;7.83;;;;;;;9.97;63.55;92905.00;1685014;83;20988;-60
2021/12/02 09:28:52;;;;;;;11.80;8.00;;;;;;;10.06;63.55;92898.61;1692560;82;21557;-59
2021/12/02 09:31:15;;;;;;;11.05;7.60;;;;;;;10.10;63.17;92899.90;1694744;82;21021;-60
2021/12/02 09:33:42;;;;;;;6.78;5.35;;;;;;;10.06;63.43;92899.38;1693766;82;21171;-57
2021/12/02 09:36:10;;;;;;;7.95;5.65;;;;;;;10.09;63.25;92905.26;1676050;82;21149;-61
2021/12/02 09:38:37;;;;;;;8.08;6.05;;;;;;;10.13;63.88;92896.80;1676695;82;21006;-61
2021/12/02 09:41:04;;;;;;;8.23;5.90;;;;;;;10.11;64.26;92897.89;1664040;83;21038;-58
2021/12/02 09:43:31;;;;;;;10.45;7.35;;;;;;;10.14;64.36;92899.69;1712814;82;21075;-57
2021/12/02 09:45:58;;;;;;;8.78;7.00;;;;;;;10.16;64.50;92907.55;1700985;81;20963;-59
2021/12/02 09:48:28;;;;;;;13.03;8.48;;;;;;;10.22;64.67;92895.23;1698105;82;21107;-60
2021/12/02 09:51:04;;;;;;;12.93;7.87;;;;;;;10.35;64.94;92892.19;1699701;82;21049;-57
2021/12/02 09:53:26;;;;;;;11.28;8.43;;;;;;;10.61;64.29;92881.87;1694497;82;21402;-58
2021/12/02 09:58:26;;;;;;;11.90;8.00;;;;;;;11.06;63.04;92891.81;1672302;84;21133;-57
2021/12/02 10:00:55;;;;;;;8.35;6.58;;;;;;;11.44;60.20;92896.69;1674140;84;21178;-56
2021/12/02 10:03:28;;;;;;;6.10;4.85;;;;;;;11.74;59.76;92886.77;1683134;81;21076;-56
2021/12/02 10:06:16;;;;;;;9.65;5.90;;;;;;;12.03;57.09;92880.16;1675653;83;21304;-57
2021/12/02 10:11:49;;;;;;;5.67;4.60;;;;;;;12.17;56.95;92887.42;1696684;82;21061;-59
2021/12/02 10:14:19;;;;;;;5.08;4.58;;;;;;;12.28;55.70;92884.64;1661876;83;21030;-57
2021/12/02 10:16:48;;;;;;;6.53;4.40;;;;;;;12.36;55.00;92882.90;1700814;82;21571;-58
2021/12/02 10:19:20;;;;;;;5.78;4.03;;;;;;;12.27;55.05;92880.39;1697195;82;21039;-58
2021/12/02 10:21:50;;;;;;;6.97;4.80;;;;;;;12.08;55.59;92880.77;1701630;82;21078;-59
2021/12/02 10:24:23;;;;;;;20.12;16.55;;;;;;;11.91;55.49;92874.50;1699918;82;21271;-60
2021/12/02 10:26:54;;;;;;;10.08;7.97;;;;;;;11.79;56.04;92873.02;1703228;83;22236;-61
2021/12/02 10:29:27;;;;;;;6.83;5.62;;;;;;;11.71;56.42;92884.38;1683069;83;21688;-62
2021/12/02 10:32:11;;;;;;;;;;;;;;;11.53;56.84;92882.71;1697727;83;21529;-59
2021/12/02 10:34:57;;;;;;;7.80;5.80;;;;;;;11.20;57.22;92886.11;1704529;82;20645;-60
2021/12/02 10:37:28;;;;;;;6.95;4.58;;;;;;;10.85;58.07;92882.23;1679366;83;21084;-61
2021/12/02 10:40:06;;;;;;;6.42;4.90;;;;;;;10.58;58.72;92895.23;1704401;82;21798;-58
2021/12/02 10:42:38;;;;;;;4.72;3.98;;;;;;;10.32;59.42;92881.45;1693284;83;21006;-57
2021/12/02 10:45:07;;;;;;;6.90;4.90;;;;;;;10.10;60.05;92884.02;1660972;83;21038;-60
2021/12/02 10:47:35;;;;;;;5.10;3.87;;;;;;;9.89;60.60;92884.73;1692700;82;21036;-60
2021/12/02 10:50:10;;;;;;;6.05;4.47;;;;;;;9.67;60.85;92887.89;1671624;83;21101;-59
2021/12/02 10:52:37;;;;;;;8.18;4.97;;;;;;;9.47;60.92;92889.33;1693079;83;21186;-59
2021/12/02 10:55:16;;;;;;;9.83;5.75;;;;;;;9.34;61.39;92888.94;1689804;82;21096;-61
2021/12/02 10:57:52;;;;;;;8.18;6.17;;;;;;;9.28;61.74;92895.00;1695651;82;21330;-56
2021/12/02 11:00:35;;;;;;;9.78;5.75;;;;;;;9.22;62.07;92901.06;1689609;82;21401;-55
2021/12/02 11:03:12;;;;;;;10.35;6.12;;;;;;;9.15;62.46;92893.23;1671391;83;21110;-57
2021/12/02 11:05:45;;;;;;;5.00;4.50;;;;;;;9.06;62.62;92894.14;1692560;82;21822;-56
2021/12/02 11:08:15;;;;;;;4.62;3.75;;;;;;;8.95;62.44;92887.77;1675768;84;21033;-58
2021/12/02 11:10:46;;;;;;;6.42;4.53;;;;;;;8.89;62.67;92889.08;1693126;83;21078;-56
2021/12/02 11:13:22;;;;;;;12.77;7.77;;;;;;;8.89;62.92;92888.34;1683061;82;21013;-57
2021/12/02 11:15:50;;;;;;;7.37;5.50;;;;;;;8.89;62.93;92889.71;1709940;83;21058;-60
2021/12/02 11:18:20;;;;;;;5.67;5.17;;;;;;;8.93;62.81;92895.73;1691372;83;21776;-59
2021/12/02 11:20:51;;;;;;;4.45;4.03;;;;;;;8.99;62.69;92884.20;1682622;83;20930;-59
2021/12/02 11:23:28;;;;;;;5.35;4.60;;;;;;;9.04;62.58;92894.50;1694343;83;21094;-58
2021/12/02 11:26:08;;;;;;;4.92;4.40;;;;;;;9.07;62.55;92877.08;1682981;83;21157;-59
2021/12/02 11:28:40;;;;;;;5.12;4.62;;;;;;;9.12;61.99;92878.52;1690236;83;21462;-63
2021/12/02 11:31:16;;;;;;;4.55;3.98;;;;;;;9.17;61.69;92881.16;1685721;83;21142;-59
2021/12/02 11:33:45;;;;;;;5.72;3.92;;;;;;;9.19;62.17;92871.83;1706954;83;21005;-60
2021/12/02 11:36:23;;;;;;;6.97;5.33;;;;;;;9.18;61.45;92887.55;1702837;83;21177;-59
2021/12/02 11:38:55;;;;;;;4.47;4.17;;;;;;;9.15;61.84;92876.78;1686756;83;21073;-57
2021/12/02 11:41:21;;;;;;;6.22;5.60;;;;;;;9.08;61.96;92879.32;1686683;83;21071;-56
2021/12/02 11:43:50;;;;;;;5.12;4.65;;;;;;;9.03;62.41;92873.16;1700208;83;21705;-57
2021/12/02 11:46:17;;;;;;;6.55;5.10;;;;;;;9.00;62.46;92873.36;1661903;82;21031;-57
2021/12/02 11:48:44;;;;;;;7.20;6.12;;;;;;;8.96;62.65;92882.42;1674190;82;20981;-57
2021/12/02 11:51:18;;;;;;;5.72;5.22;;;;;;;8.97;62.98;92874.33;1680183;84;21565;-55
2021/12/02 11:53:45;;;;;;;8.80;6.92;;;;;;;8.97;62.54;92886.67;1676898;85;20990;-57
2021/12/02 11:56:14;;;;;;;7.90;7.10;;;;;;;8.95;62.85;92891.89;1683312;82;21793;-59
2021/12/02 11:58:42;;;;;;;7.85;6.53;;;;;;;8.96;63.24;92875.57;1692440;82;21492;-56
2021/12/02 12:01:15;;;;;;;8.03;6.45;;;;;;;8.98;63.29;92890.92;1695058;82;21129;-60
2021/12/02 12:03:53;;;;;;;9.50;7.65;;;;;;;8.99;63.83;92886.34;1694769;82;21587;-62
2021/12/02 12:06:34;;;;;;;8.38;5.95;;;;;;;8.98;63.77;92887.58;1700015;82;21144;-58
2021/12/02 12:09:12;;;;;;;8.85;6.80;;;;;;;9.00;63.81;92881.59;1704641;83;21489;-61
2021/12/02 12:11:48;;;;;;;11.00;7.50;;;;;;;9.00;63.99;92879.62;1671232;82;21403;-63